首页
METAR-TAF:

METAR-TAF

机场 :

亨德森, 内华达州, 美国

纬度: 35-58-35N, 经度: 115-07-58W, 海拔: 749米

当前天气观测

该预报发布于33分钟前的05:56 UTC
风速6节,风向南转西南
温度 21°C
湿度 21%
气压 1012 hPa
能見度: 16.1公里
天空无云

METAR: KHND 170556Z AUTO 20006KT 10SM CLR 21/M02 A2987 RMK AO2 SLP112 T02061017 10283 20206 58003

时间: 23:29 (06:29 UTC)

预报

该预报发布于1小时和4分钟前的05:25 UTC
预报有效从17日的 06点(UTC)到 18日的 06点(UTC)
风速7节,风向
能見度: 10公里
多云层高于20000英尺
从 17日的 1600点(UTC)
风速17节,风向南转西南,有时为27节阵风
能見度: 10公里
少量云层高于14000英尺
多云层高于20000英尺
从 18日的 0400点(UTC)
风速12节,风向西南,有时为18节阵风
能見度: 10公里
散云层高于20000英尺

TAF: KHND 170525Z 1706/1806 19007KT P6SM BKN200 FM171600 21017G27KT P6SM FEW140 BKN200 FM180400 23012G18KT P6SM SCT200

超过4000个机场的气象观测和天气预报(METAR&TAF报告)。

可查询的气象台以黄色和红色小点在地图上表示。

将鼠标移到小点上方,可查看气象台名称。

然后点击查看天气观测和预报。

如需切换地图:点击带黑十字的绿色按钮放大地图;点击带横线的绿色按钮缩小地图;或者点击绿色箭头查看邻近地区的地图。


METAR-TAF: